createdAt,value
2023-01-05T00:00:03.437Z,11
2023-01-05T00:01:03.934Z,17
2023-01-05T00:02:03.590Z,15
2023-01-05T00:03:03.540Z,14
2023-01-05T00:04:04.367Z,14
2023-01-05T00:05:03.652Z,16
2023-01-05T00:06:03.590Z,18
2023-01-05T00:07:03.505Z,13
2023-01-05T00:08:03.728Z,14
2023-01-05T00:09:05.557Z,17
2023-01-05T00:10:03.422Z,17
2023-01-05T00:11:03.575Z,17
2023-01-05T00:12:03.490Z,13
2023-01-05T00:13:03.581Z,16
2023-01-05T00:14:05.849Z,17
2023-01-05T00:15:04.415Z,18
2023-01-05T00:16:04.274Z,20
2023-01-05T00:17:04.114Z,15
2023-01-05T00:18:03.402Z,15
2023-01-05T00:19:03.429Z,13
2023-01-05T00:20:03.437Z,19
2023-01-05T00:21:04.364Z,15
2023-01-05T00:23:03.666Z,16
2023-01-05T00:24:03.426Z,14
2023-01-05T00:25:09.267Z,19
2023-01-05T00:26:04.067Z,20
2023-01-05T00:27:03.429Z,14
2023-01-05T00:28:03.422Z,14
2023-01-05T00:29:03.629Z,14
2023-01-05T00:30:04.408Z,15
2023-01-05T00:31:03.507Z,16
2023-01-05T00:32:03.495Z,18
2023-01-05T00:33:04.057Z,15
2023-01-05T00:34:03.725Z,16
2023-01-05T00:35:03.447Z,15
2023-01-05T00:36:03.984Z,15
2023-01-05T00:37:03.371Z,16
2023-01-05T00:38:04.050Z,15
2023-01-05T00:39:04.245Z,17
2023-01-05T00:40:04.096Z,15
2023-01-05T00:41:03.423Z,13
2023-01-05T00:42:03.423Z,14
2023-01-05T00:43:04.374Z,18
2023-01-05T00:44:03.556Z,17
2023-01-05T00:45:04.415Z,18
2023-01-05T00:46:04.066Z,21
2023-01-05T00:47:02.747Z,17
2023-01-05T00:48:03.586Z,16
2023-01-05T00:49:04.302Z,21
2023-01-05T00:50:03.862Z,16
2023-01-05T00:51:04.168Z,16
2023-01-05T00:52:04.149Z,21
2023-01-05T00:53:03.376Z,16
2023-01-05T00:54:04.143Z,17
2023-01-05T00:55:03.925Z,18
2023-01-05T00:56:03.519Z,15
2023-01-05T00:57:03.481Z,15
2023-01-05T00:58:03.431Z,19
2023-01-05T00:59:03.487Z,16
2023-01-05T01:00:03.411Z,14
2023-01-05T01:01:03.584Z,16
2023-01-05T01:02:03.483Z,14
2023-01-05T01:03:03.990Z,15
2023-01-05T01:04:04.329Z,17
2023-01-05T01:05:04.262Z,18
2023-01-05T01:06:03.931Z,16
2023-01-05T01:07:03.418Z,20
2023-01-05T01:08:03.572Z,18
2023-01-05T01:09:03.400Z,22
2023-01-05T01:10:03.578Z,20
2023-01-05T01:11:03.416Z,15
2023-01-05T01:12:03.881Z,16
2023-01-05T01:13:03.494Z,21
2023-01-05T01:14:03.525Z,19
2023-01-05T01:15:03.421Z,16
2023-01-05T01:16:03.674Z,19
2023-01-05T01:17:03.446Z,15
2023-01-05T01:18:03.411Z,19
2023-01-05T01:19:05.568Z,18
2023-01-05T01:20:03.439Z,19
2023-01-05T01:21:04.046Z,18
2023-01-05T01:22:03.692Z,17
2023-01-05T01:23:03.487Z,21
2023-01-05T01:24:03.548Z,17
2023-01-05T01:25:03.922Z,19
2023-01-05T01:26:03.829Z,19
2023-01-05T01:27:03.738Z,21
2023-01-05T01:28:03.405Z,18
2023-01-05T01:29:03.775Z,13
2023-01-05T01:30:03.427Z,16
2023-01-05T01:31:03.666Z,15
2023-01-05T01:32:03.855Z,17
2023-01-05T01:33:04.035Z,20
2023-01-05T01:34:03.429Z,16
2023-01-05T01:35:03.430Z,13
2023-01-05T01:36:04.035Z,20
2023-01-05T01:37:03.747Z,16
2023-01-05T01:38:03.403Z,16
2023-01-05T01:39:03.998Z,17
2023-01-05T01:40:04.044Z,15
2023-01-05T01:41:04.178Z,20
2023-01-05T01:42:04.017Z,21
2023-01-05T01:43:03.411Z,16
2023-01-05T01:44:03.462Z,19
2023-01-05T01:45:04.319Z,19
2023-01-05T01:46:03.482Z,20
2023-01-05T01:47:03.420Z,20
2023-01-05T01:48:03.473Z,22
2023-01-05T01:49:03.520Z,18
2023-01-05T01:50:03.611Z,20
2023-01-05T01:51:08.198Z,21
2023-01-05T01:52:02.349Z,20
2023-01-05T01:53:04.221Z,18
2023-01-05T01:54:04.033Z,16
2023-01-05T01:55:03.413Z,16
2023-01-05T01:56:03.439Z,16
2023-01-05T01:57:03.453Z,20
2023-01-05T01:58:03.551Z,22
2023-01-05T01:59:03.449Z,18
2023-01-05T02:00:03.843Z,19
2023-01-05T02:01:04.148Z,20
2023-01-05T02:02:03.853Z,15
2023-01-05T02:03:03.628Z,17
2023-01-05T02:04:04.393Z,18
2023-01-05T02:05:03.431Z,19
2023-01-05T02:06:04.174Z,20
2023-01-05T02:07:03.438Z,20
2023-01-05T02:08:03.446Z,23
2023-01-05T02:09:03.916Z,18
2023-01-05T02:10:04.175Z,21
2023-01-05T02:11:03.544Z,22
2023-01-05T02:12:04.100Z,24
2023-01-05T02:13:03.783Z,23
2023-01-05T02:14:02.878Z,20
2023-01-05T02:15:03.528Z,21
2023-01-05T02:16:03.538Z,18
2023-01-05T02:17:03.611Z,23
2023-01-05T02:18:03.491Z,20
2023-01-05T02:19:03.557Z,18
2023-01-05T02:20:03.574Z,21
2023-01-05T02:21:04.170Z,22
2023-01-05T02:22:03.841Z,21
2023-01-05T02:23:03.482Z,20
2023-01-05T02:24:04.091Z,22
2023-01-05T02:25:03.530Z,17
2023-01-05T02:26:04.270Z,15
2023-01-05T02:27:04.207Z,24
2023-01-05T02:28:03.492Z,20
2023-01-05T02:29:03.784Z,21
2023-01-05T02:30:03.897Z,19
2023-01-05T02:31:04.017Z,23
2023-01-05T02:32:03.552Z,25
2023-01-05T02:33:03.564Z,28
2023-01-05T02:34:03.676Z,22
2023-01-05T02:35:03.617Z,21
2023-01-05T02:36:03.578Z,23
2023-01-05T02:37:03.573Z,23
2023-01-05T02:39:04.247Z,17
2023-01-05T02:40:03.578Z,21
2023-01-05T02:41:03.833Z,19
2023-01-05T02:42:03.671Z,18
2023-01-05T02:43:03.724Z,21
2023-01-05T02:44:03.586Z,18
2023-01-05T02:45:03.372Z,20
2023-01-05T02:46:03.657Z,21
2023-01-05T02:47:03.577Z,25
2023-01-05T02:48:03.556Z,24
2023-01-05T02:49:03.587Z,21
2023-01-05T02:50:04.318Z,19
2023-01-05T02:51:03.633Z,16
2023-01-05T02:52:04.149Z,18
2023-01-05T02:53:04.032Z,20
2023-01-05T02:54:03.990Z,24
2023-01-05T02:55:03.590Z,19
2023-01-05T02:56:04.076Z,20
2023-01-05T02:57:03.599Z,19
2023-01-05T02:58:03.939Z,24
2023-01-05T02:59:03.609Z,22
2023-01-05T03:00:02.235Z,21
2023-01-05T03:01:03.564Z,22
2023-01-05T03:02:03.651Z,26
2023-01-05T03:03:04.165Z,21
2023-01-05T03:04:03.372Z,23
2023-01-05T03:05:03.429Z,24
2023-01-05T03:06:04.265Z,22
2023-01-05T03:07:03.646Z,22
2023-01-05T03:08:04.160Z,30
2023-01-05T03:09:03.426Z,21
2023-01-05T03:10:03.418Z,19
2023-01-05T03:11:03.699Z,21
2023-01-05T03:12:04.033Z,24
2023-01-05T03:13:03.764Z,19
2023-01-05T03:14:03.422Z,26
2023-01-05T03:15:03.468Z,19
2023-01-05T03:16:03.515Z,20
2023-01-05T03:17:03.377Z,21
2023-01-05T03:18:03.747Z,20
2023-01-05T03:19:03.702Z,18
2023-01-05T03:20:03.857Z,21
2023-01-05T03:21:03.421Z,23
2023-01-05T03:22:03.531Z,26
2023-01-05T03:23:04.001Z,19
2023-01-05T03:24:03.466Z,20
2023-01-05T03:25:03.961Z,24
2023-01-05T03:26:03.402Z,23
2023-01-05T03:27:03.555Z,21
2023-01-05T03:28:03.878Z,19
2023-01-05T03:29:04.157Z,25
2023-01-05T03:30:03.379Z,18
2023-01-05T03:31:03.854Z,25
2023-01-05T03:32:03.417Z,20
2023-01-05T03:33:03.453Z,19
2023-01-05T03:34:03.394Z,20
2023-01-05T03:35:03.970Z,21
2023-01-05T03:36:04.151Z,21
2023-01-05T03:37:03.371Z,18
2023-01-05T03:38:03.397Z,22
2023-01-05T03:39:03.491Z,21
2023-01-05T03:40:03.918Z,20
2023-01-05T03:41:03.490Z,17
2023-01-05T03:42:03.485Z,20
2023-01-05T03:43:03.408Z,16
2023-01-05T03:44:03.997Z,22
2023-01-05T03:45:04.319Z,22
2023-01-05T03:46:03.462Z,23
2023-01-05T03:47:03.415Z,21
2023-01-05T03:48:04.140Z,24
2023-01-05T03:49:03.857Z,24
2023-01-05T03:50:03.471Z,20
2023-01-05T03:51:03.492Z,22
2023-01-05T03:52:03.953Z,24
2023-01-05T03:53:04.090Z,22
2023-01-05T03:54:03.545Z,19
2023-01-05T03:55:03.726Z,19
2023-01-05T03:56:04.008Z,24
2023-01-05T03:57:03.989Z,19
2023-01-05T03:58:03.528Z,18
2023-01-05T03:59:04.317Z,22
2023-01-05T04:00:04.160Z,24
2023-01-05T04:01:04.081Z,25
2023-01-05T04:02:04.251Z,20
2023-01-05T04:03:03.760Z,22
2023-01-05T04:04:04.097Z,25
2023-01-05T04:05:03.772Z,22
2023-01-05T04:06:03.435Z,23
2023-01-05T04:07:03.415Z,24
2023-01-05T04:08:03.722Z,16
2023-01-05T04:09:04.048Z,20
2023-01-05T04:10:02.833Z,21
2023-01-05T04:11:04.080Z,19
2023-01-05T04:12:03.399Z,20
2023-01-05T04:13:03.414Z,27
2023-01-05T04:14:03.418Z,20
2023-01-05T04:15:03.415Z,23
2023-01-05T04:16:03.492Z,19
2023-01-05T04:17:03.668Z,27
2023-01-05T04:18:04.368Z,23
2023-01-05T04:19:03.408Z,19
2023-01-05T04:20:03.425Z,22
2023-01-05T04:21:03.761Z,19
2023-01-05T04:22:03.403Z,19
2023-01-05T04:23:03.408Z,21
2023-01-05T04:24:03.407Z,19
2023-01-05T04:25:05.108Z,19
2023-01-05T04:26:03.668Z,22
2023-01-05T04:27:04.270Z,20
2023-01-05T04:28:03.459Z,21
2023-01-05T04:29:03.571Z,20
2023-01-05T04:30:03.406Z,25
2023-01-05T04:31:04.069Z,19
2023-01-05T04:32:03.403Z,23
2023-01-05T04:33:03.869Z,22
2023-01-05T04:34:03.466Z,21
2023-01-05T04:35:10.981Z,25
2023-01-05T04:36:03.426Z,19
2023-01-05T04:37:03.968Z,23
2023-01-05T04:38:03.413Z,17
2023-01-05T04:39:03.463Z,22
2023-01-05T04:40:03.403Z,17
2023-01-05T04:41:04.200Z,24
2023-01-05T04:42:03.613Z,20
2023-01-05T04:43:03.482Z,24
2023-01-05T04:44:03.643Z,24
2023-01-05T04:45:03.560Z,21
2023-01-05T04:46:03.451Z,21
2023-01-05T04:47:04.020Z,22
2023-01-05T04:48:03.772Z,20
2023-01-05T04:49:03.680Z,18
2023-01-05T04:50:03.415Z,23
2023-01-05T04:51:04.256Z,20
2023-01-05T04:52:04.190Z,20
2023-01-05T04:53:04.150Z,21
2023-01-05T04:54:03.401Z,22
2023-01-05T04:55:04.180Z,23
2023-01-05T04:56:03.706Z,22
2023-01-05T04:57:04.136Z,19
2023-01-05T04:58:06.900Z,22
2023-01-05T04:59:03.711Z,23
2023-01-05T05:00:03.490Z,22
2023-01-05T05:01:03.780Z,23
2023-01-05T05:02:04.413Z,25
2023-01-05T05:03:03.449Z,21
2023-01-05T05:04:03.795Z,27
2023-01-05T05:05:03.914Z,21
2023-01-05T05:06:03.835Z,23
2023-01-05T05:07:03.387Z,22
2023-01-05T05:08:03.462Z,26
2023-01-05T05:09:03.485Z,24
2023-01-05T05:10:03.389Z,27
2023-01-05T05:11:03.439Z,22
2023-01-05T05:12:03.643Z,22
2023-01-05T05:13:04.011Z,19
2023-01-05T05:14:03.717Z,25
2023-01-05T05:15:04.120Z,23
2023-01-05T05:16:02.727Z,24
2023-01-05T05:17:03.509Z,24
2023-01-05T05:18:09.099Z,20
2023-01-05T05:19:03.968Z,24
2023-01-05T05:20:03.499Z,23
2023-01-05T05:21:03.420Z,22
2023-01-05T05:22:03.661Z,27
2023-01-05T05:23:04.142Z,23
2023-01-05T05:24:03.808Z,25
2023-01-05T05:25:03.413Z,20
2023-01-05T05:26:03.693Z,26
2023-01-05T05:27:03.427Z,21
2023-01-05T05:28:05.015Z,18
2023-01-05T05:29:03.398Z,25
2023-01-05T05:30:03.654Z,28
2023-01-05T05:31:03.468Z,21
2023-01-05T05:32:03.723Z,21
2023-01-05T05:33:03.410Z,19
2023-01-05T05:34:03.508Z,25
2023-01-05T05:35:03.496Z,18
2023-01-05T05:36:04.352Z,25
2023-01-05T05:37:03.481Z,22
2023-01-05T05:38:03.391Z,21
2023-01-05T05:39:02.903Z,23
2023-01-05T05:40:03.589Z,25
2023-01-05T05:41:03.405Z,19
2023-01-05T05:42:03.859Z,22
2023-01-05T05:43:04.038Z,27
2023-01-05T05:44:04.230Z,20
2023-01-05T05:45:03.402Z,24
2023-01-05T05:46:04.225Z,29
2023-01-05T05:47:03.459Z,32
2023-01-05T05:48:03.468Z,26
2023-01-05T05:49:03.403Z,22
2023-01-05T05:50:03.392Z,29
2023-01-05T05:51:03.446Z,27
2023-01-05T05:52:03.516Z,25
2023-01-05T05:53:03.873Z,24
2023-01-05T05:54:04.370Z,31
2023-01-05T05:55:03.385Z,23
2023-01-05T05:56:04.143Z,29
2023-01-05T05:57:03.381Z,22
2023-01-05T05:58:04.238Z,29
2023-01-05T05:59:03.623Z,22
2023-01-05T06:00:03.451Z,25
2023-01-05T06:01:03.666Z,33
2023-01-05T06:02:03.449Z,25
2023-01-05T06:04:03.719Z,21
2023-01-05T06:05:03.435Z,29
2023-01-05T06:06:04.069Z,22
2023-01-05T06:07:03.537Z,20
2023-01-05T06:08:03.385Z,25
2023-01-05T06:09:03.933Z,25
2023-01-05T06:10:03.469Z,23
2023-01-05T06:11:03.402Z,24
2023-01-05T06:12:04.163Z,24
2023-01-05T06:13:03.669Z,27
2023-01-05T06:14:04.036Z,23
2023-01-05T06:15:03.856Z,26
2023-01-05T06:16:03.423Z,22
2023-01-05T06:17:03.417Z,21
2023-01-05T06:18:04.380Z,26
2023-01-05T06:19:03.741Z,26
2023-01-05T06:20:03.981Z,26
2023-01-05T06:21:04.023Z,28
2023-01-05T06:22:03.422Z,27
2023-01-05T06:23:03.394Z,26
2023-01-05T06:24:03.453Z,25
2023-01-05T06:25:03.393Z,27
2023-01-05T06:26:03.851Z,22
2023-01-05T06:27:03.486Z,25
2023-01-05T06:28:03.398Z,20
2023-01-05T06:29:03.451Z,24
2023-01-05T06:30:03.729Z,26
2023-01-05T06:31:03.561Z,24
2023-01-05T06:32:04.178Z,29
2023-01-05T06:33:03.496Z,28
2023-01-05T06:34:03.764Z,24
2023-01-05T06:35:03.605Z,25
2023-01-05T06:36:03.853Z,30
2023-01-05T06:37:04.905Z,27
2023-01-05T06:38:03.387Z,23
2023-01-05T06:39:03.644Z,23
2023-01-05T06:40:03.921Z,27
2023-01-05T06:41:03.406Z,23
2023-01-05T06:42:03.384Z,28
2023-01-05T06:43:03.901Z,24
2023-01-05T06:44:04.339Z,24
2023-01-05T06:45:03.381Z,22
2023-01-05T06:46:04.462Z,24
2023-01-05T06:47:03.646Z,23
2023-01-05T06:48:04.007Z,25
2023-01-05T06:49:04.099Z,24
2023-01-05T06:50:03.742Z,23
2023-01-05T06:51:04.252Z,26
2023-01-05T06:52:04.250Z,21
2023-01-05T06:53:04.169Z,26
2023-01-05T06:54:03.585Z,23
2023-01-05T06:55:03.755Z,24
2023-01-05T06:56:04.346Z,35
2023-01-05T06:57:03.391Z,29
2023-01-05T06:58:03.625Z,25
2023-01-05T06:59:03.381Z,28
2023-01-05T07:00:04.140Z,23
2023-01-05T07:01:04.135Z,24
2023-01-05T07:02:03.491Z,28
2023-01-05T07:03:03.777Z,24
2023-01-05T07:04:03.435Z,23
2023-01-05T07:05:03.642Z,25
2023-01-05T07:06:03.819Z,25
2023-01-05T07:07:03.987Z,26
2023-01-05T07:08:03.398Z,22
2023-01-05T07:09:03.394Z,28
2023-01-05T07:10:04.352Z,22
2023-01-05T07:11:04.057Z,23
2023-01-05T07:12:03.379Z,26
2023-01-05T07:13:03.462Z,23
2023-01-05T07:14:03.417Z,24
2023-01-05T07:15:04.000Z,26
2023-01-05T07:16:03.592Z,26
2023-01-05T07:17:04.136Z,25
2023-01-05T07:18:04.194Z,27
2023-01-05T07:19:03.828Z,28
2023-01-05T07:20:04.113Z,27
2023-01-05T07:21:04.028Z,29
2023-01-05T07:22:04.140Z,25
2023-01-05T07:23:03.409Z,23
2023-01-05T07:24:03.512Z,22
2023-01-05T07:25:04.028Z,27
2023-01-05T07:26:03.351Z,20
2023-01-05T07:27:09.412Z,22
2023-01-05T07:28:03.516Z,24
2023-01-05T07:29:03.824Z,29
2023-01-05T07:30:03.373Z,26
2023-01-05T07:31:03.713Z,20
2023-01-05T07:32:03.971Z,19
2023-01-05T07:33:03.935Z,31
2023-01-05T07:34:03.376Z,27
2023-01-05T07:35:03.722Z,32
2023-01-05T07:36:03.973Z,26
2023-01-05T07:37:03.376Z,26
2023-01-05T07:38:03.427Z,30
2023-01-05T07:39:03.765Z,23
2023-01-05T07:40:03.837Z,24
2023-01-05T07:41:03.381Z,22
2023-01-05T07:42:03.465Z,27
2023-01-05T07:43:04.020Z,28
2023-01-05T07:44:03.455Z,27
2023-01-05T07:45:03.898Z,25
2023-01-05T07:46:04.089Z,25
2023-01-05T07:47:03.947Z,24
2023-01-05T07:48:03.440Z,27
2023-01-05T07:49:04.099Z,29
2023-01-05T07:50:03.963Z,37
2023-01-05T07:51:04.009Z,31
2023-01-05T07:52:03.839Z,28
2023-01-05T07:53:03.493Z,28
2023-01-05T07:54:04.072Z,29
2023-01-05T07:55:04.169Z,33
2023-01-05T07:56:03.371Z,22
2023-01-05T07:57:03.803Z,25
2023-01-05T07:58:05.254Z,20
2023-01-05T07:59:03.414Z,26
2023-01-05T08:00:03.395Z,29
2023-01-05T08:01:04.218Z,28
2023-01-05T08:02:04.417Z,26
2023-01-05T08:03:03.431Z,23
2023-01-05T08:04:03.586Z,28
2023-01-05T08:05:03.731Z,25
2023-01-05T08:06:03.413Z,25
2023-01-05T08:07:03.561Z,28
2023-01-05T08:08:03.379Z,25
2023-01-05T08:09:03.839Z,29
2023-01-05T08:10:04.084Z,28
2023-01-05T08:11:03.380Z,32
2023-01-05T08:12:04.183Z,25
2023-01-05T08:13:03.556Z,26
2023-01-05T08:14:03.370Z,35
2023-01-05T08:15:03.385Z,27
2023-01-05T08:16:04.222Z,29
2023-01-05T08:17:04.057Z,29
2023-01-05T08:18:03.968Z,30
2023-01-05T08:20:03.387Z,28
2023-01-05T08:21:04.120Z,26
2023-01-05T08:22:03.350Z,30
2023-01-05T08:23:03.544Z,24
2023-01-05T08:24:03.418Z,33
2023-01-05T08:25:03.420Z,29
2023-01-05T08:26:03.381Z,26
2023-01-05T08:27:03.837Z,25
2023-01-05T08:28:03.892Z,25
2023-01-05T08:29:03.580Z,32
2023-01-05T08:30:03.873Z,29
2023-01-05T08:31:03.400Z,27
2023-01-05T08:32:04.296Z,26
2023-01-05T08:33:03.373Z,29
2023-01-05T08:34:03.945Z,27
2023-01-05T08:35:03.903Z,32
2023-01-05T08:36:03.902Z,29
2023-01-05T08:37:04.013Z,27
2023-01-05T08:38:03.767Z,32
2023-01-05T08:39:03.396Z,33
2023-01-05T08:40:03.395Z,26
2023-01-05T08:41:02.741Z,25
2023-01-05T08:42:03.872Z,25
2023-01-05T08:43:03.908Z,31
2023-01-05T08:44:03.398Z,36
2023-01-05T08:45:03.453Z,30
2023-01-05T08:46:03.477Z,31
2023-01-05T08:47:03.395Z,33
2023-01-05T08:48:04.138Z,33
2023-01-05T08:49:03.489Z,36
2023-01-05T08:50:03.733Z,29
2023-01-05T08:51:03.699Z,31
2023-01-05T08:52:03.845Z,32
2023-01-05T08:53:03.434Z,26
2023-01-05T08:54:03.943Z,35
2023-01-05T08:55:03.407Z,29
2023-01-05T08:56:03.558Z,32
2023-01-05T08:57:03.790Z,33
2023-01-05T08:58:03.357Z,34
2023-01-05T08:59:03.958Z,28
2023-01-05T09:00:03.420Z,26
2023-01-05T09:01:04.315Z,34
2023-01-05T09:02:04.100Z,29
2023-01-05T09:03:03.582Z,34
2023-01-05T09:04:04.021Z,29
2023-01-05T09:05:03.558Z,31
2023-01-05T09:06:03.347Z,31
2023-01-05T09:07:03.397Z,27
2023-01-05T09:08:03.438Z,29
2023-01-05T09:09:03.925Z,37
2023-01-05T09:10:03.460Z,30
2023-01-05T09:11:04.179Z,31
2023-01-05T09:12:03.788Z,31
2023-01-05T09:13:03.387Z,32
2023-01-05T09:14:03.459Z,34
2023-01-05T09:15:03.380Z,31
2023-01-05T09:16:04.333Z,25
2023-01-05T09:17:08.069Z,32
2023-01-05T09:18:03.449Z,30
2023-01-05T09:19:03.875Z,28
2023-01-05T09:20:03.696Z,28
2023-01-05T09:21:03.407Z,33
2023-01-05T09:22:03.624Z,30
2023-01-05T09:23:04.156Z,34
2023-01-05T09:24:03.389Z,33
2023-01-05T09:25:03.915Z,35
2023-01-05T09:26:04.161Z,29
2023-01-05T09:27:03.621Z,32
2023-01-05T09:28:03.458Z,31
2023-01-05T09:29:04.590Z,32
2023-01-05T09:30:03.733Z,30
2023-01-05T09:31:03.518Z,35
2023-01-05T09:32:03.534Z,34
2023-01-05T09:33:04.176Z,35
2023-01-05T09:34:03.597Z,38
2023-01-05T09:35:04.118Z,31
2023-01-05T09:36:03.978Z,27
2023-01-05T09:37:03.442Z,35
2023-01-05T09:38:03.867Z,32
2023-01-05T09:39:03.793Z,39
2023-01-05T09:40:03.622Z,33
2023-01-05T09:41:03.458Z,30
2023-01-05T09:42:03.534Z,38
2023-01-05T09:43:03.380Z,34
2023-01-05T09:44:04.638Z,28
2023-01-05T09:45:03.458Z,37
2023-01-05T09:46:03.941Z,35
2023-01-05T09:47:03.409Z,38
2023-01-05T09:48:04.101Z,35
2023-01-05T09:49:04.349Z,28
2023-01-05T09:50:03.358Z,32
2023-01-05T09:51:03.533Z,33
2023-01-05T09:52:04.293Z,35
2023-01-05T09:53:03.911Z,33
2023-01-05T09:54:03.905Z,39
2023-01-05T09:55:03.895Z,36
2023-01-05T09:56:03.906Z,33
2023-01-05T09:57:11.139Z,35
2023-01-05T09:58:03.462Z,40
2023-01-05T09:59:04.225Z,26
2023-01-05T10:00:03.475Z,36
2023-01-05T10:01:03.410Z,35
2023-01-05T10:02:03.455Z,27
2023-01-05T10:03:03.903Z,33
2023-01-05T10:04:04.919Z,35
2023-01-05T10:05:03.603Z,36
2023-01-05T10:06:03.384Z,32
2023-01-05T10:07:03.424Z,28
2023-01-05T10:08:03.679Z,32
2023-01-05T10:09:03.395Z,30
2023-01-05T10:10:03.856Z,26
2023-01-05T10:11:03.722Z,32
2023-01-05T10:12:03.750Z,33
2023-01-05T10:13:04.057Z,32
2023-01-05T10:14:03.738Z,37
2023-01-05T10:15:03.854Z,30
2023-01-05T10:16:03.994Z,35
2023-01-05T10:17:39.203Z,36
2023-01-05T10:18:03.390Z,35
2023-01-05T10:19:03.822Z,35
2023-01-05T10:20:03.863Z,32
2023-01-05T10:21:03.737Z,32
2023-01-05T10:22:03.727Z,30
2023-01-05T10:23:03.825Z,34
2023-01-05T10:24:03.693Z,32
2023-01-05T10:25:03.706Z,33
2023-01-05T10:26:03.348Z,25
2023-01-05T10:28:03.847Z,41
2023-01-05T10:29:03.747Z,37
2023-01-05T10:30:04.130Z,32
2023-01-05T10:31:03.503Z,29
2023-01-05T10:32:03.999Z,28
2023-01-05T10:33:25.561Z,41
2023-01-05T10:34:06.562Z,30
2023-01-05T10:35:04.030Z,34
2023-01-05T10:36:08.609Z,27
2023-01-05T10:37:08.571Z,30
2023-01-05T10:38:04.107Z,30
2023-01-05T10:39:03.983Z,31
2023-01-05T10:40:04.086Z,31
2023-01-05T10:41:03.392Z,25
2023-01-05T10:42:04.227Z,25
2023-01-05T10:43:03.773Z,33
2023-01-05T10:44:03.399Z,25
2023-01-05T10:45:03.439Z,29
2023-01-05T10:46:31.241Z,29
2023-01-05T10:47:03.533Z,30
2023-01-05T10:48:03.871Z,31
2023-01-05T10:49:03.463Z,31
2023-01-05T10:50:04.373Z,34
2023-01-05T10:51:03.412Z,32
2023-01-05T10:52:03.434Z,30
2023-01-05T10:53:03.402Z,28
2023-01-05T10:54:03.579Z,33
2023-01-05T10:55:04.514Z,38
2023-01-05T10:56:03.605Z,33
2023-01-05T10:57:03.859Z,34
2023-01-05T10:58:04.037Z,30
2023-01-05T10:59:03.690Z,37
2023-01-05T11:00:04.138Z,30
2023-01-05T11:01:04.262Z,35
2023-01-05T11:02:03.478Z,31
2023-01-05T11:03:03.948Z,28
2023-01-05T11:04:26.954Z,31
2023-01-05T11:05:04.149Z,26
2023-01-05T11:06:03.490Z,29
2023-01-05T11:07:03.927Z,28
2023-01-05T11:08:03.946Z,29
2023-01-05T11:09:03.390Z,33
2023-01-05T11:10:04.016Z,33
2023-01-05T11:11:04.327Z,36
2023-01-05T11:12:03.492Z,25
2023-01-05T11:13:03.949Z,29
2023-01-05T11:14:03.403Z,33
2023-01-05T11:15:03.386Z,27
2023-01-05T11:16:03.446Z,31
2023-01-05T11:17:03.540Z,31
2023-01-05T11:18:03.355Z,29
2023-01-05T11:19:03.380Z,23
2023-01-05T11:20:04.159Z,26
2023-01-05T11:21:04.146Z,27
2023-01-05T11:22:03.340Z,26
2023-01-05T11:23:03.574Z,31
2023-01-05T11:24:03.407Z,32
2023-01-05T11:25:03.860Z,24
2023-01-05T11:26:03.334Z,28
2023-01-05T11:27:03.428Z,28
2023-01-05T11:28:05.322Z,27
2023-01-05T11:29:03.588Z,26
2023-01-05T11:30:03.400Z,33
2023-01-05T11:31:03.520Z,25
2023-01-05T11:32:03.451Z,29
2023-01-05T11:33:03.853Z,26
2023-01-05T11:34:04.180Z,22
2023-01-05T11:35:03.364Z,28
2023-01-05T11:36:03.370Z,26
2023-01-05T11:37:07.834Z,27
2023-01-05T11:38:03.400Z,24
2023-01-05T11:39:03.381Z,28
2023-01-05T11:40:04.118Z,26
2023-01-05T11:41:03.873Z,22
2023-01-05T11:42:03.877Z,27
2023-01-05T11:43:03.406Z,25
2023-01-05T11:44:03.546Z,29
2023-01-05T11:45:03.454Z,26
2023-01-05T11:46:04.008Z,29
2023-01-05T11:47:03.434Z,26
2023-01-05T11:48:03.426Z,30
2023-01-05T11:49:08.888Z,24
2023-01-05T11:50:08.765Z,22
2023-01-05T11:51:03.615Z,25
2023-01-05T11:52:03.744Z,21
2023-01-05T11:53:03.411Z,30
2023-01-05T11:54:03.992Z,26
2023-01-05T11:55:03.694Z,29
2023-01-05T11:56:03.881Z,26
2023-01-05T11:57:03.358Z,21
2023-01-05T11:58:03.334Z,20
2023-01-05T11:59:04.128Z,26
2023-01-05T12:00:03.370Z,28
2023-01-05T12:01:03.820Z,24
2023-01-05T12:02:03.435Z,22
2023-01-05T12:03:02.260Z,26
2023-01-05T12:04:03.486Z,25
2023-01-05T12:05:04.282Z,26
2023-01-05T12:06:03.853Z,21
2023-01-05T12:07:04.024Z,24
2023-01-05T12:08:03.540Z,25
2023-01-05T12:09:03.925Z,23
2023-01-05T12:10:03.905Z,22
2023-01-05T12:11:03.579Z,26
2023-01-05T12:12:03.703Z,20
2023-01-05T12:13:03.722Z,21
2023-01-05T12:14:03.935Z,22
2023-01-05T12:15:03.703Z,20
2023-01-05T12:16:03.862Z,21
2023-01-05T12:17:03.462Z,24
2023-01-05T12:18:03.337Z,24
2023-01-05T12:19:03.918Z,28
2023-01-05T12:20:03.676Z,25
2023-01-05T12:21:04.291Z,23
2023-01-05T12:22:04.000Z,28
2023-01-05T12:23:04.037Z,27
2023-01-05T12:24:04.042Z,20
2023-01-05T12:25:02.678Z,26
2023-01-05T12:26:03.769Z,22
2023-01-05T12:27:04.096Z,20
2023-01-05T12:28:05.544Z,28
2023-01-05T12:34:01.012Z,20
2023-01-05T12:34:07.310Z,30
2023-01-05T12:35:03.412Z,26
2023-01-05T12:36:03.427Z,25
2023-01-05T12:37:04.095Z,25
2023-01-05T12:38:03.452Z,18
2023-01-05T12:39:03.515Z,17
2023-01-05T12:40:03.356Z,24
2023-01-05T12:41:03.384Z,22
2023-01-05T12:42:04.081Z,18
2023-01-05T12:43:03.418Z,22
2023-01-05T12:44:04.530Z,23
2023-01-05T12:45:03.969Z,23
2023-01-05T12:46:03.776Z,24
2023-01-05T12:47:02.524Z,22
2023-01-05T12:48:03.458Z,23
2023-01-05T12:49:03.389Z,19
2023-01-05T12:50:04.027Z,25
2023-01-05T12:51:03.771Z,25
2023-01-05T12:52:06.703Z,21
2023-01-05T12:53:03.391Z,21
2023-01-05T12:54:03.373Z,25
2023-01-05T12:55:03.380Z,21
2023-01-05T12:56:03.421Z,21
2023-01-05T12:57:03.380Z,19
2023-01-05T12:58:03.572Z,18
2023-01-05T12:59:04.082Z,17
2023-01-05T13:00:03.920Z,23
2023-01-05T13:01:03.474Z,27
2023-01-05T13:02:03.965Z,21
2023-01-05T13:03:03.557Z,22
2023-01-05T13:04:03.858Z,16
2023-01-05T13:05:04.366Z,22
2023-01-05T13:06:03.339Z,23
2023-01-05T13:07:03.934Z,21
2023-01-05T13:08:03.718Z,23
2023-01-05T13:09:03.960Z,22
2023-01-05T13:10:03.833Z,23
2023-01-05T13:11:03.434Z,22
2023-01-05T13:12:03.465Z,17
2023-01-05T13:13:03.445Z,18
2023-01-05T13:14:03.412Z,22
2023-01-05T13:15:03.373Z,26
2023-01-05T13:16:03.444Z,28
2023-01-05T13:17:03.365Z,22
2023-01-05T13:18:03.825Z,19
2023-01-05T13:19:03.616Z,28
2023-01-05T13:20:03.390Z,20
2023-01-05T13:21:05.038Z,28
2023-01-05T13:22:03.433Z,19
2023-01-05T13:23:03.836Z,18
2023-01-05T13:24:03.472Z,18
2023-01-05T13:25:03.376Z,17
2023-01-05T13:26:03.572Z,23
2023-01-05T13:27:03.388Z,20
2023-01-05T13:29:03.459Z,19
2023-01-05T13:30:04.187Z,26
2023-01-05T13:31:04.044Z,27
2023-01-05T13:32:03.397Z,21
2023-01-05T13:33:03.770Z,17
2023-01-05T13:34:04.001Z,17
2023-01-05T13:35:03.876Z,23
2023-01-05T13:36:04.051Z,20
2023-01-05T13:37:03.333Z,23
2023-01-05T13:38:03.628Z,23
2023-01-05T13:39:03.451Z,15
2023-01-05T13:40:03.442Z,18
2023-01-05T13:41:04.105Z,23
2023-01-05T13:42:03.796Z,18
2023-01-05T13:43:03.672Z,19
2023-01-05T13:44:03.366Z,20
2023-01-05T13:45:04.061Z,19
2023-01-05T13:46:03.341Z,24
2023-01-05T13:47:03.995Z,22
2023-01-05T13:48:07.228Z,27
2023-01-05T13:49:04.858Z,21
2023-01-05T13:50:04.113Z,27
2023-01-05T13:51:03.818Z,25
2023-01-05T13:52:03.341Z,24
2023-01-05T13:53:03.353Z,26
2023-01-05T13:54:03.307Z,22
2023-01-05T13:55:02.768Z,25
2023-01-05T13:56:03.433Z,28
2023-01-05T13:57:03.427Z,25
2023-01-05T13:58:03.359Z,19
2023-01-05T13:59:03.571Z,26
2023-01-05T14:00:09.524Z,30
2023-01-05T14:01:04.035Z,22
2023-01-05T14:02:04.207Z,25
2023-01-05T14:03:03.611Z,21
2023-01-05T14:04:03.906Z,23
2023-01-05T14:05:03.561Z,26
2023-01-05T14:06:03.621Z,24
2023-01-05T14:07:03.894Z,24
2023-01-05T14:08:04.188Z,27
2023-01-05T14:10:04.115Z,19
2023-01-05T14:11:03.331Z,24
2023-01-05T14:12:04.303Z,22
2023-01-05T14:13:03.854Z,22
2023-01-05T14:14:04.068Z,27
2023-01-05T14:15:03.435Z,21
2023-01-05T14:16:03.937Z,26
2023-01-05T14:17:02.124Z,27
2023-01-05T14:18:03.344Z,24
2023-01-05T14:19:04.145Z,20
2023-01-05T14:20:03.484Z,23
2023-01-05T14:21:03.333Z,20
2023-01-05T14:22:03.956Z,23
2023-01-05T14:23:04.108Z,19
2023-01-05T14:24:03.352Z,22
2023-01-05T14:25:03.962Z,23
2023-01-05T14:26:03.337Z,23